Time;durP1;ratioP1;P1;durP2;ratioP2;P2;SDS_P1;SDS_P2;PMS_P1;PMS_P2;Temp;Humidity;BMP_temperature;BMP_pressure;BME280_temperature;BME280_humidity;BME280_pressure;Samples;Min_cycle;Max_cycle;Signal;HPM_P1;HPM_P2
2022/08/18 00:01:08;;;;;;;53.85;42.63;;;;;;;18.01;100.00;101069.72;5099242;28;20024;-83
2022/08/18 00:03:33;;;;;;;54.33;42.75;;;;;;;17.96;100.00;101075.47;5104033;28;20392;-84
2022/08/18 00:05:58;;;;;;;55.35;44.58;;;;;;;17.83;100.00;101064.81;5106921;28;20036;-84
2022/08/18 00:08:24;;;;;;;50.58;43.00;;;;;;;17.86;100.00;101085.28;5111565;28;20031;-84
2022/08/18 00:10:49;;;;;;;56.10;42.72;;;;;;;17.79;100.00;101094.78;5095738;28;20135;-85
2022/08/18 00:13:14;;;;;;;58.08;45.35;;;;;;;17.66;100.00;101076.84;5096440;28;20024;-84
2022/08/18 00:15:39;;;;;;;58.53;44.40;;;;;;;17.72;100.00;101088.97;5097325;28;20413;-85
2022/08/18 00:18:05;;;;;;;56.63;44.75;;;;;;;17.68;100.00;101098.25;5110589;28;20055;-84
2022/08/18 00:20:30;;;;;;;55.80;45.90;;;;;;;17.66;100.00;101092.16;5098184;28;20497;-84
2022/08/18 00:22:56;;;;;;;56.78;44.35;;;;;;;17.60;100.00;101089.94;5106128;28;20534;-84
2022/08/18 00:25:23;;;;;;;57.00;45.20;;;;;;;17.63;100.00;101085.16;5099666;28;20023;-84
2022/08/18 00:27:49;;;;;;;60.53;46.40;;;;;;;17.60;100.00;101093.50;5107745;28;20045;-85
2022/08/18 00:30:18;;;;;;;59.42;44.97;;;;;;;17.55;100.00;101086.72;5106949;28;20050;-83
2022/08/18 00:32:48;;;;;;;59.35;46.05;;;;;;;17.53;100.00;101083.31;5101347;28;20095;-84
2022/08/18 00:35:21;;;;;;;61.22;45.03;;;;;;;17.61;100.00;101103.28;5098037;28;20027;-84
2022/08/18 00:37:47;;;;;;;58.30;44.88;;;;;;;17.64;100.00;101097.66;5106304;28;20155;-84
2022/08/18 00:40:17;;;;;;;58.33;45.45;;;;;;;17.72;100.00;101099.75;5099763;28;20515;-84
2022/08/18 00:42:48;;;;;;;58.60;45.03;;;;;;;17.74;100.00;101111.31;5110899;28;20026;-84
2022/08/18 00:45:22;;;;;;;57.92;44.90;;;;;;;17.77;100.00;101108.38;5106414;28;20028;-83
2022/08/18 00:47:48;;;;;;;59.67;45.97;;;;;;;17.82;100.00;101110.72;5090118;28;20020;-84
2022/08/18 00:50:39;;;;;;;62.05;45.90;;;;;;;17.90;100.00;101125.31;5097812;28;20020;-84
2022/08/18 00:53:11;;;;;;;58.80;45.22;;;;;;;17.94;100.00;101119.69;5081363;28;20028;-84
2022/08/18 00:55:39;;;;;;;59.95;46.33;;;;;;;17.95;100.00;101110.63;5101592;28;20077;-84
2022/08/18 00:58:10;;;;;;;58.95;45.10;;;;;;;17.98;100.00;101111.25;5087927;28;20024;-84
2022/08/18 01:00:36;;;;;;;57.65;44.13;;;;;;;18.05;100.00;101106.22;5104001;28;20065;-83
2022/08/18 01:03:06;;;;;;;56.80;44.45;;;;;;;18.09;100.00;101107.69;5090842;28;20028;-84
2022/08/18 01:05:44;;;;;;;56.53;44.08;;;;;;;18.12;100.00;101110.16;5094852;28;20020;-84
2022/08/18 01:08:13;;;;;;;62.03;45.00;;;;;;;18.10;100.00;101095.94;5091699;28;20032;-84
2022/08/18 01:10:39;;;;;;;60.05;45.13;;;;;;;18.18;100.00;101096.19;5089938;28;20032;-85
2022/08/18 01:13:06;;;;;;;56.20;44.83;;;;;;;18.19;100.00;101097.94;5102147;28;20147;-84
2022/08/18 01:15:32;;;;;;;60.70;45.53;;;;;;;18.23;100.00;101088.63;5091346;28;20093;-85
2022/08/18 01:23:47;;;;;;;58.45;44.95;;;;;;;18.24;100.00;101093.03;5103915;28;20507;-84
2022/08/18 01:26:15;;;;;;;58.88;44.50;;;;;;;18.25;100.00;101096.59;5096394;28;20030;-85
2022/08/18 01:28:43;;;;;;;58.38;45.05;;;;;;;18.27;100.00;101092.81;5086674;28;20097;-84
2022/08/18 01:31:10;;;;;;;53.53;43.13;;;;;;;18.29;100.00;101098.91;5100518;28;20077;-84
2022/08/18 01:33:39;;;;;;;61.20;46.20;;;;;;;18.20;100.00;101091.56;5096340;28;20032;-85
2022/08/18 01:36:11;;;;;;;55.38;43.30;;;;;;;18.18;100.00;101101.59;5097398;28;20480;-85
2022/08/18 01:38:37;;;;;;;52.95;42.30;;;;;;;18.11;100.00;101094.97;5096540;28;20158;-84
2022/08/18 01:41:03;;;;;;;57.28;43.53;;;;;;;18.03;100.00;101086.66;5096698;28;20115;-85
2022/08/18 01:43:29;;;;;;;58.15;45.35;;;;;;;18.06;100.00;101089.97;5096619;28;20048;-85
2022/08/18 01:45:56;;;;;;;62.92;46.75;;;;;;;18.07;100.00;101093.50;5105305;28;20020;-84
2022/08/18 01:48:21;;;;;;;63.25;45.78;;;;;;;18.05;100.00;101090.91;5109380;28;20119;-84
2022/08/18 01:50:48;;;;;;;58.05;44.15;;;;;;;18.05;100.00;101087.38;5103167;28;20114;-85
2022/08/18 01:53:14;;;;;;;58.05;44.33;;;;;;;17.96;100.00;101088.09;5089238;28;20023;-84
2022/08/18 01:55:43;;;;;;;57.95;44.80;;;;;;;17.80;100.00;101077.66;5100427;28;20119;-84
2022/08/18 01:58:08;;;;;;;59.38;44.72;;;;;;;17.74;100.00;101084.38;5101112;28;20495;-85
2022/08/18 02:00:35;;;;;;;63.85;45.63;;;;;;;17.65;100.00;101077.84;5097642;28;20067;-85
2022/08/18 02:03:05;;;;;;;61.22;45.53;;;;;;;17.68;100.00;101088.38;5097263;28;20023;-84
2022/08/18 02:05:36;;;;;;;56.97;44.78;;;;;;;17.64;100.00;101086.91;5095945;28;20039;-84
2022/08/18 02:08:03;;;;;;;57.92;43.80;;;;;;;17.60;100.00;101082.72;5100890;28;20023;-85
2022/08/18 02:10:29;;;;;;;62.22;46.70;;;;;;;17.57;100.00;101090.16;5095543;28;20046;-84
2022/08/18 02:12:54;;;;;;;59.53;45.60;;;;;;;17.57;100.00;101099.09;5108514;28;20456;-84
2022/08/18 02:15:19;;;;;;;59.80;45.38;;;;;;;17.54;100.00;101110.09;5097626;28;20038;-85
2022/08/18 02:17:45;;;;;;;58.70;44.45;;;;;;;17.50;100.00;101095.16;5104707;28;20063;-85
2022/08/18 02:20:14;;;;;;;62.83;47.30;;;;;;;17.51;100.00;101090.63;5107342;28;20044;-85
2022/08/18 02:22:41;;;;;;;61.25;46.33;;;;;;;17.57;100.00;101099.09;5097550;28;20038;-83
2022/08/18 02:25:07;;;;;;;62.55;46.25;;;;;;;17.62;100.00;101102.28;5103340;28;20028;-85
2022/08/18 02:27:34;;;;;;;61.35;45.90;;;;;;;17.60;100.00;101098.03;5094939;28;20461;-85
2022/08/18 02:30:01;;;;;;;59.72;44.95;;;;;;;17.71;100.00;101114.19;5102262;28;20045;-84
2022/08/18 02:32:27;;;;;;;56.92;44.70;;;;;;;17.75;100.00;101114.84;5090711;28;20027;-85
2022/08/18 02:34:53;;;;;;;54.25;42.17;;;;;;;17.76;100.00;101114.72;5104964;28;20027;-84
2022/08/18 02:37:18;;;;;;;59.08;44.38;;;;;;;17.84;100.00;101119.50;5095268;28;20048;-84
2022/08/18 02:39:44;;;;;;;58.05;44.33;;;;;;;17.86;100.00;101112.19;5097295;28;20114;-82
2022/08/18 02:42:09;;;;;;;57.80;43.95;;;;;;;17.87;100.00;101114.75;5096838;28;20042;-83
2022/08/18 02:44:35;;;;;;;57.13;45.78;;;;;;;17.90;100.00;101119.06;5095544;28;20047;-85
2022/08/18 02:47:00;;;;;;;58.30;43.90;;;;;;;17.86;100.00;101123.81;5109176;28;20023;-85
2022/08/18 02:49:26;;;;;;;56.38;44.25;;;;;;;17.81;100.00;101109.84;5101274;28;20472;-85
2022/08/18 02:51:52;;;;;;;55.85;44.05;;;;;;;17.77;100.00;101113.75;5091830;28;20389;-84
2022/08/18 02:54:21;;;;;;;58.47;44.63;;;;;;;17.80;100.00;101126.13;5111883;27;20495;-84
2022/08/18 02:56:49;;;;;;;60.30;44.85;;;;;;;17.87;100.00;101127.38;5109205;28;20038;-85
2022/08/18 02:59:18;;;;;;;63.38;45.05;;;;;;;17.88;100.00;101123.69;5103970;28;20172;-84
2022/08/18 03:01:46;;;;;;;62.25;45.28;;;;;;;17.88;100.00;101121.00;5104900;28;20024;-84
2022/08/18 03:04:15;;;;;;;60.10;44.75;;;;;;;17.91;100.00;101118.94;5106652;28;20019;-85
2022/08/18 03:06:42;;;;;;;60.15;46.03;;;;;;;17.90;100.00;101125.31;5096063;28;20487;-85
2022/08/18 03:09:08;;;;;;;64.32;46.20;;;;;;;17.90;100.00;101125.31;5096206;28;20522;-85
2022/08/18 03:11:35;;;;;;;67.38;46.95;;;;;;;17.97;100.00;101139.13;5095577;28;20058;-85
2022/08/18 03:14:01;;;;;;;73.70;49.38;;;;;;;17.95;100.00;101138.41;5100940;28;20023;-85
2022/08/18 03:16:31;;;;;;;72.60;49.13;;;;;;;17.89;100.00;101128.09;5108448;28;20416;-85
2022/08/18 03:18:58;;;;;;;69.13;47.28;;;;;;;17.90;100.00;101119.06;5106661;28;20106;-85
2022/08/18 03:21:25;;;;;;;63.33;45.50;;;;;;;17.89;100.00;101126.28;5091355;28;20035;-85
2022/08/18 03:23:52;;;;;;;59.35;45.17;;;;;;;17.84;100.00;101131.16;5103585;28;20024;-85
2022/08/18 03:26:19;;;;;;;57.95;42.47;;;;;;;17.79;100.00;101119.03;5103556;28;20047;-85
2022/08/18 03:28:47;;;;;;;57.33;41.97;;;;;;;17.76;100.00;101120.09;5107453;28;20046;-85
2022/08/18 03:31:15;;;;;;;54.78;42.88;;;;;;;17.75;100.00;101125.63;5103738;28;20523;-85
2022/08/18 03:33:41;;;;;;;57.75;42.97;;;;;;;17.65;100.00;101117.34;5089333;28;20531;-85
2022/08/18 03:36:11;;;;;;;58.38;43.33;;;;;;;17.61;100.00;101116.72;5105009;28;20040;-84
2022/08/18 03:38:37;;;;;;;56.08;42.10;;;;;;;17.57;100.00;101117.09;5109294;28;20016;-84
2022/08/18 03:41:05;;;;;;;55.90;42.10;;;;;;;17.53;100.00;101120.97;5097738;28;20024;-84
2022/08/18 03:43:30;;;;;;;54.80;42.60;;;;;;;17.48;100.00;101120.47;5108357;28;20024;-84
2022/08/18 03:46:03;;;;;;;57.05;41.72;;;;;;;17.36;100.00;101120.41;5098895;28;20024;-85
2022/08/18 03:48:29;;;;;;;55.38;41.80;;;;;;;17.32;100.00;101116.22;5107241;28;20081;-85
2022/08/18 03:50:55;;;;;;;56.28;41.88;;;;;;;17.26;100.00;101122.06;5090596;28;20028;-85
2022/08/18 03:53:20;;;;;;;53.53;41.75;;;;;;;17.12;100.00;101116.84;5090534;28;20030;-83
2022/08/18 03:55:45;;;;;;;53.45;40.53;;;;;;;17.08;100.00;101120.75;5093885;28;20027;-84
2022/08/18 03:58:14;;;;;;;54.30;41.15;;;;;;;17.02;100.00;101116.69;5098052;28;20027;-83
2022/08/18 04:00:40;;;;;;;56.20;40.53;;;;;;;16.93;100.00;101118.22;5106570;28;20046;-84
2022/08/18 04:03:06;;;;;;;52.20;38.70;;;;;;;16.85;100.00;101111.69;5095341;28;20034;-84
2022/08/18 04:05:34;;;;;;;52.58;40.67;;;;;;;16.83;100.00;101114.47;5101315;28;20027;-83
2022/08/18 04:08:01;;;;;;;52.97;41.47;;;;;;;16.81;100.00;101118.25;5108380;28;20038;-83
2022/08/18 04:10:26;;;;;;;53.47;41.42;;;;;;;16.79;100.00;101114.81;5123608;28;20026;-84
2022/08/18 04:12:52;;;;;;;57.38;42.40;;;;;;;16.81;100.00;101107.50;5113610;28;20020;-83
2022/08/18 04:15:17;;;;;;;56.50;42.17;;;;;;;16.81;100.00;101103.00;5101781;28;20076;-84
2022/08/18 04:17:44;;;;;;;59.55;42.85;;;;;;;16.86;100.00;101111.56;5115703;28;20049;-84
2022/08/18 04:20:11;;;;;;;60.03;42.60;;;;;;;16.96;100.00;101117.13;5107174;28;20054;-83
2022/08/18 04:22:37;;;;;;;57.00;41.42;;;;;;;17.00;100.00;101112.38;5102763;28;20100;-83
2022/08/18 04:25:02;;;;;;;53.95;40.45;;;;;;;17.05;100.00;101116.44;5107192;28;20484;-83
2022/08/18 04:27:28;;;;;;;53.47;40.25;;;;;;;17.13;100.00;101124.81;5106841;28;21266;-84
2022/08/18 04:29:55;;;;;;;55.58;42.38;;;;;;;17.20;100.00;101127.06;5102612;28;20595;-82
2022/08/18 04:32:21;;;;;;;54.78;42.35;;;;;;;17.22;100.00;101123.25;5121276;28;20027;-83
2022/08/18 04:34:47;;;;;;;54.50;41.97;;;;;;;17.26;100.00;101126.59;5131778;28;20043;-84
2022/08/18 04:37:14;;;;;;;55.58;41.72;;;;;;;17.25;100.00;101131.09;5105711;28;20040;-84
2022/08/18 04:39:39;;;;;;;52.88;40.17;;;;;;;17.29;100.00;101129.91;5094183;28;20059;-84
2022/08/18 04:42:05;;;;;;;51.55;40.15;;;;;;;17.28;100.00;101124.66;5101193;28;20242;-84
2022/08/18 04:44:30;;;;;;;54.88;39.72;;;;;;;17.23;100.00;101113.38;5107409;28;20023;-83
2022/08/18 04:46:55;;;;;;;52.58;41.40;;;;;;;17.33;100.00;101133.22;5087659;28;20826;-83
2022/08/18 04:49:24;;;;;;;54.33;42.17;;;;;;;17.27;100.00;101129.19;5098016;28;20621;-84
2022/08/18 04:54:37;;;;;;;52.92;40.95;;;;;;;17.32;100.00;101136.91;5105043;28;20059;-84
2022/08/18 04:57:11;;;;;;;55.78;42.38;;;;;;;17.32;100.00;101150.34;5101425;28;20028;-84
2022/08/18 04:59:37;;;;;;;53.30;41.03;;;;;;;17.30;100.00;101149.59;5089716;28;20097;-83
2022/08/18 05:02:07;;;;;;;51.65;40.47;;;;;;;17.33;100.00;101152.06;5094671;28;20297;-83
2022/08/18 05:04:33;;;;;;;60.65;42.20;;;;;;;17.32;100.00;101148.53;5109188;28;20106;-85
2022/08/18 05:07:00;;;;;;;57.25;42.58;;;;;;;17.34;100.00;101160.00;5106296;28;20122;-84
2022/08/18 05:09:26;;;;;;;55.33;41.00;;;;;;;17.36;100.00;101157.22;5101944;28;20074;-84
2022/08/18 05:11:51;;;;;;;56.13;41.78;;;;;;;17.34;100.00;101162.69;5094779;28;20469;-84
2022/08/18 05:14:17;;;;;;;54.53;41.28;;;;;;;17.35;100.00;101164.44;5097504;28;20040;-84
2022/08/18 05:16:42;;;;;;;51.05;40.90;;;;;;;17.42;100.00;101165.69;5099727;28;20048;-84
2022/08/18 05:19:10;;;;;;;52.85;40.55;;;;;;;17.48;100.00;101161.69;5101049;28;20103;-83
2022/08/18 05:21:38;;;;;;;53.72;40.78;;;;;;;17.49;100.00;101158.03;5107549;28;20047;-84
2022/08/18 05:24:04;;;;;;;55.33;41.30;;;;;;;17.45;100.00;101155.69;5111993;28;20066;-84
2022/08/18 05:26:30;;;;;;;52.35;40.00;;;;;;;17.43;100.00;101159.34;5111364;28;20035;-84
2022/08/18 05:28:56;;;;;;;54.58;41.03;;;;;;;17.41;100.00;101160.44;5111093;28;20028;-85
2022/08/18 05:31:24;;;;;;;57.90;41.42;;;;;;;17.37;100.00;101162.47;5107564;28;20028;-86
2022/08/18 05:33:51;;;;;;;59.42;41.38;;;;;;;17.37;100.00;101170.56;5110450;28;20024;-84
2022/08/18 05:36:56;;;;;;;59.70;41.67;;;;;;;17.34;100.00;101164.53;5106594;28;20020;-83
2022/08/18 05:39:21;;;;;;;55.25;41.17;;;;;;;17.45;100.00;101166.44;5104807;28;20429;-84
2022/08/18 05:42:05;;;;;;;58.67;42.47;;;;;;;17.55;100.00;101171.00;5111042;28;20024;-84
2022/08/18 05:44:40;;;;;;;58.97;42.45;;;;;;;17.60;100.00;101174.22;5109255;28;20297;-85
2022/08/18 05:47:23;;;;;;;60.90;43.55;;;;;;;17.67;100.00;101167.41;5095387;28;20107;-85
2022/08/18 05:49:49;;;;;;;58.65;41.05;;;;;;;17.79;100.00;101168.34;5098009;28;20024;-84
2022/08/18 05:52:21;;;;;;;54.97;41.65;;;;;;;17.89;100.00;101163.97;5106442;28;20039;-85
2022/08/18 05:57:48;;;;;;;55.90;43.38;;;;;;;18.10;100.00;101168.66;5105337;28;20074;-85
2022/08/18 06:00:13;;;;;;;56.80;40.03;;;;;;;18.10;100.00;101168.66;5105816;28;20019;-84
2022/08/18 06:03:18;;;;;;;51.45;38.13;;;;;;;18.08;100.00;101174.19;5107189;28;20034;-85
2022/08/18 06:05:56;;;;;;;50.42;38.55;;;;;;;18.10;100.00;101168.66;5100058;28;20035;-86
2022/08/18 06:08:26;;;;;;;53.58;39.90;;;;;;;18.23;100.00;101180.25;5104133;28;20558;-85
2022/08/18 06:10:53;;;;;;;51.83;38.08;;;;;;;18.24;100.00;101155.00;5093106;28;20073;-86
2022/08/18 06:13:19;;;;;;;52.42;39.63;;;;;;;18.38;99.81;101170.94;5096428;28;20024;-85
2022/08/18 06:15:50;;;;;;;51.67;37.67;;;;;;;18.46;99.93;101178.41;5095228;28;20048;-85
2022/08/18 06:18:34;;;;;;;56.85;42.33;;;;;;;18.52;99.33;101185.16;5105072;28;20024;-85
2022/08/18 06:21:30;;;;;;;52.42;39.92;;;;;;;18.48;98.66;101172.94;5093081;28;20040;-84
2022/08/18 06:24:34;;;;;;;53.78;39.15;;;;;;;18.56;98.71;101183.94;5099277;28;20866;-85
2022/08/18 06:27:15;;;;;;;50.45;38.63;;;;;;;18.55;99.00;101190.31;5105978;28;20040;-84
2022/08/18 06:29:50;;;;;;;46.63;36.35;;;;;;;18.53;98.61;101194.97;5095815;28;20389;-87
2022/08/18 06:32:34;;;;;;;50.53;38.60;;;;;;;18.58;97.52;101192.78;5101551;28;20131;-89
2022/08/18 06:35:13;;;;;;;46.50;36.38;;;;;;;18.57;97.74;101178.44;5102540;28;20038;-87
2022/08/18 06:38:39;;;;;;;46.10;34.63;;;;;;;18.68;97.03;101196.44;5102467;28;20040;-90
2022/08/18 06:41:21;;;;;;;47.40;35.45;;;;;;;18.79;97.08;101190.25;5098777;28;20477;-90
2022/08/18 06:44:10;;;;;;;48.28;34.83;;;;;;;18.87;96.51;101196.75;5102579;28;20024;-86
2022/08/18 06:46:40;;;;;;;47.35;35.60;;;;;;;18.88;96.20;101194.91;5100489;28;20024;-85
2022/08/18 06:49:08;;;;;;;49.75;37.30;;;;;;;19.01;95.79;101186.66;5091923;28;20068;-86
2022/08/18 06:51:34;;;;;;;44.70;33.90;;;;;;;19.15;94.53;101199.91;5096765;28;20485;-87
2022/08/18 06:54:06;;;;;;;43.10;33.53;;;;;;;19.35;93.96;101198.25;5111995;28;20034;-86
2022/08/18 06:56:46;;;;;;;41.53;33.35;;;;;;;19.51;93.88;101195.16;5101835;28;20530;-85
2022/08/18 06:59:33;;;;;;;41.58;32.20;;;;;;;19.70;93.26;101200.78;5090893;28;20456;-85
2022/08/18 07:02:16;;;;;;;41.70;31.65;;;;;;;19.68;91.49;101208.16;5104437;28;20596;-86
2022/08/18 07:04:58;;;;;;;41.08;31.98;;;;;;;19.58;91.38;101204.47;5104518;28;20027;-86
2022/08/18 07:07:38;;;;;;;38.60;29.83;;;;;;;19.51;91.87;101214.91;5107788;28;20426;-85
2022/08/18 07:10:28;;;;;;;39.35;30.27;;;;;;;19.43;91.96;101209.28;5093607;28;20388;-85
2022/08/18 07:13:15;;;;;;;43.88;33.35;;;;;;;19.53;92.27;101209.41;5110353;28;20114;-86
2022/08/18 07:15:42;;;;;;;42.53;32.10;;;;;;;19.64;90.90;101206.69;5104443;28;20048;-86
2022/08/18 07:18:08;;;;;;;44.90;33.10;;;;;;;19.80;89.70;101209.81;5091951;28;20118;-87
2022/08/18 07:20:54;;;;;;;42.42;31.92;;;;;;;20.00;90.10;101210.84;5097313;28;20145;-86
2022/08/18 07:23:24;;;;;;;51.10;35.50;;;;;;;19.94;88.30;101210.50;5097449;28;20024;-85
2022/08/18 07:25:58;;;;;;;42.03;30.35;;;;;;;19.87;88.30;101208.34;5102985;28;20420;-85
2022/08/18 07:28:36;;;;;;;31.50;26.58;;;;;;;19.99;88.93;101214.56;5107843;28;20369;-85
2022/08/18 07:31:11;;;;;;;30.70;26.08;;;;;;;20.10;88.62;101211.78;5097405;28;20035;-86
2022/08/18 07:33:39;;;;;;;30.65;25.17;;;;;;;20.75;88.13;101209.81;5096969;28;20054;-86
2022/08/18 07:36:08;;;;;;;30.85;24.60;;;;;;;20.97;82.79;101214.16;5102790;28;20027;-86
2022/08/18 07:38:53;;;;;;;28.85;23.90;;;;;;;21.32;82.89;101215.63;5107896;28;20035;-86
2022/08/18 07:41:31;;;;;;;27.35;23.33;;;;;;;21.55;80.98;101221.63;5102820;28;20606;-86
2022/08/18 07:44:17;;;;;;;29.10;23.85;;;;;;;22.04;81.53;101214.41;5106267;28;20027;-86
2022/08/18 07:46:54;;;;;;;26.90;22.10;;;;;;;22.41;77.14;101208.25;5109748;28;20032;-87
2022/08/18 07:49:22;;;;;;;27.77;22.40;;;;;;;22.47;76.35;101213.09;5109062;28;20088;-85
2022/08/18 07:51:53;;;;;;;24.45;21.42;;;;;;;22.51;75.65;101217.22;5106377;28;20088;-86
2022/08/18 07:54:33;;;;;;;31.83;25.23;;;;;;;22.35;77.02;101210.53;5107345;28;20140;-86
2022/08/18 07:57:22;;;;;;;26.77;22.55;;;;;;;22.05;77.72;101199.84;5109501;28;20059;-85
2022/08/18 08:00:02;;;;;;;25.98;22.65;;;;;;;21.85;77.97;101215.25;5103645;28;20035;-85
2022/08/18 08:02:47;;;;;;;27.75;23.70;;;;;;;21.74;78.21;101216.25;5094112;28;20020;-86
2022/08/18 08:05:54;;;;;;;24.75;22.00;;;;;;;21.72;79.03;101214.66;5102404;28;20028;-86
2022/08/18 08:08:29;;;;;;;25.77;22.35;;;;;;;21.76;78.42;101216.94;5098545;28;20036;-85
2022/08/18 08:11:16;;;;;;;29.98;21.67;;;;;;;21.63;77.12;101216.38;5099243;28;20303;-84
2022/08/18 08:13:53;;;;;;;24.17;20.45;;;;;;;21.64;77.84;101201.81;5107648;28;20031;-85
2022/08/18 08:16:56;;;;;;;43.08;33.33;;;;;;;21.89;78.63;101227.50;5104792;28;20485;-86
2022/08/18 08:19:32;;;;;;;28.63;23.48;;;;;;;22.15;76.50;101222.41;5092944;28;20032;-87
2022/08/18 08:22:31;;;;;;;26.95;20.80;;;;;;;22.17;75.75;101223.13;5105127;28;20038;-87
2022/08/18 08:25:14;;;;;;;24.90;20.60;;;;;;;22.07;76.66;101230.34;5095936;28;20142;-88
2022/08/18 08:28:06;;;;;;;23.45;20.60;;;;;;;22.59;77.25;101217.34;5096521;28;20035;-86
2022/08/18 08:30:40;;;;;;;25.13;19.33;;;;;;;23.45;72.54;101220.72;5107649;28;20042;-86
2022/08/18 08:33:16;;;;;;;23.23;19.88;;;;;;;24.36;67.40;101217.84;5100293;28;20080;-86
2022/08/18 08:36:02;;;;;;;20.92;18.70;;;;;;;25.12;66.76;101219.88;5094787;28;20028;-87
2022/08/18 08:38:53;;;;;;;20.52;17.67;;;;;;;25.95;65.22;101224.56;5100431;28;20031;-86
2022/08/18 08:41:30;;;;;;;19.08;17.00;;;;;;;25.21;61.04;101224.34;5089819;28;20043;-87
2022/08/18 08:44:11;;;;;;;19.02;16.08;;;;;;;24.85;64.66;101227.22;5103673;28;20040;-87
2022/08/18 08:47:05;;;;;;;17.92;15.80;;;;;;;24.49;66.43;101237.34;5096357;28;20534;-88
2022/08/18 08:49:51;;;;;;;18.08;15.38;;;;;;;24.19;68.06;101233.16;5093342;28;20036;-88
2022/08/18 08:52:31;;;;;;;20.08;16.65;;;;;;;23.74;68.28;101242.25;5105533;28;20031;-88
2022/08/18 08:55:16;;;;;;;16.65;14.95;;;;;;;23.42;68.68;101248.19;5102007;28;20031;-87
2022/08/18 08:57:49;;;;;;;18.38;16.20;;;;;;;23.56;68.02;101246.78;5102812;28;20081;-87
2022/08/18 09:00:15;;;;;;;17.77;14.98;;;;;;;24.94;64.58;101246.31;5103548;28;20024;-88
2022/08/18 09:02:49;;;;;;;17.50;15.00;;;;;;;25.82;61.85;101245.00;5094289;28;20041;-88
2022/08/18 09:05:29;;;;;;;16.50;14.43;;;;;;;26.51;59.15;101248.31;5104727;28;20039;-89
2022/08/18 09:08:12;;;;;;;16.60;14.85;;;;;;;27.16;58.43;101246.44;5102690;28;20057;-89
2022/08/18 09:11:05;;;;;;;17.80;15.90;;;;;;;28.57;55.44;101247.09;5107501;28;20068;-88
2022/08/18 09:14:12;;;;;;;17.50;15.57;;;;;;;27.54;56.59;101244.72;5103993;28;20476;-88
2022/08/18 09:17:11;;;;;;;16.38;14.68;;;;;;;28.89;54.16;101251.41;5078058;28;20047;-89
2022/08/18 09:19:57;;;;;;;16.30;14.60;;;;;;;30.55;49.55;101250.59;5098130;28;20028;-87
2022/08/18 09:22:39;;;;;;;15.38;13.82;;;;;;;31.78;46.20;101239.88;5107314;28;20035;-89
2022/08/18 09:25:10;;;;;;;12.23;11.02;;;;;;;32.50;42.87;101243.81;5103518;28;20096;-89
2022/08/18 09:27:45;;;;;;;13.63;12.23;;;;;;;32.96;42.00;101246.50;5096105;28;20027;-89
2022/08/18 09:30:39;;;;;;;12.10;10.90;;;;;;;33.41;42.67;101243.81;5109434;28;20027;-87
2022/08/18 09:33:44;;;;;;;12.02;10.77;;;;;;;34.22;40.86;101239.56;5103762;28;20122;-88
2022/08/18 09:36:27;;;;;;;10.68;9.68;;;;;;;34.35;39.27;101232.00;5098991;28;20038;-88
2022/08/18 09:41:48;;;;;;;10.05;9.07;;;;;;;34.75;37.08;101233.59;5103705;28;19923;-89
2022/08/18 09:44:45;;;;;;;11.43;10.43;;;;;;;32.90;40.99;101241.81;5105458;28;20031;-89
2022/08/18 09:47:19;;;;;;;13.52;12.13;;;;;;;30.75;40.80;101245.28;5106826;28;20310;-87
2022/08/18 09:49:55;;;;;;;12.38;11.18;;;;;;;29.25;45.86;101226.81;5112194;28;20090;-88
2022/08/18 09:52:21;;;;;;;11.75;10.75;;;;;;;28.15;46.55;101231.19;5103207;28;20020;-88
2022/08/18 09:55:04;;;;;;;12.43;11.23;;;;;;;28.33;48.67;101236.34;5098546;28;20027;-89
2022/08/18 09:57:38;;;;;;;12.02;10.68;;;;;;;30.05;45.90;101240.59;5102017;28;20068;-88
2022/08/18 10:00:04;;;;;;;11.35;10.20;;;;;;;31.93;41.47;101232.28;5101965;27;20024;-88
2022/08/18 10:02:30;;;;;;;12.95;11.65;;;;;;;33.10;38.05;101236.28;5095327;28;20066;-88
2022/08/18 10:05:14;;;;;;;10.68;9.60;;;;;;;32.07;40.74;101234.03;5096488;28;20377;-89
2022/08/18 10:07:43;;;;;;;12.00;9.98;;;;;;;30.22;42.12;101234.72;5097550;28;20111;-89
2022/08/18 10:10:36;;;;;;;11.00;10.00;;;;;;;28.76;46.69;101230.13;5115143;28;20130;-89
2022/08/18 10:13:25;;;;;;;12.02;10.85;;;;;;;27.49;49.49;101230.75;5108203;28;20400;-88
2022/08/18 10:16:21;;;;;;;12.60;11.30;;;;;;;26.67;52.19;101227.44;5107224;28;20055;-88
2022/08/18 10:19:12;;;;;;;12.07;10.75;;;;;;;26.23;53.25;101231.38;5092322;28;20028;-89
2022/08/18 10:21:59;;;;;;;12.63;11.32;;;;;;;26.06;54.41;101241.44;5103928;28;21319;-88
2022/08/18 10:24:33;;;;;;;13.85;10.88;;;;;;;26.01;54.58;101238.38;5105089;28;20034;-88
2022/08/18 10:27:04;;;;;;;11.48;10.38;;;;;;;26.57;53.71;101225.75;5092547;28;20529;-89
2022/08/18 10:29:30;;;;;;;11.73;10.57;;;;;;;27.44;50.82;101219.50;5100893;28;20469;-88
2022/08/18 10:31:56;;;;;;;13.18;11.05;;;;;;;27.93;51.23;101216.50;5105508;28;20077;-88
2022/08/18 10:34:46;;;;;;;12.00;10.90;;;;;;;29.42;47.93;101199.19;5106932;28;20031;-88
2022/08/18 10:37:15;;;;;;;10.82;9.80;;;;;;;29.78;44.17;101212.91;5103795;28;20400;-89
2022/08/18 10:39:41;;;;;;;10.43;9.52;;;;;;;29.24;45.46;101210.56;5106201;28;20110;-91
2022/08/18 10:42:32;;;;;;;11.93;10.75;;;;;;;28.51;47.30;101213.09;5097253;28;20546;-90
2022/08/18 10:45:16;;;;;;;11.38;10.27;;;;;;;28.13;49.05;101225.03;5100197;28;20051;-90
2022/08/18 10:47:41;;;;;;;11.45;10.32;;;;;;;27.74;48.76;101209.63;5098971;28;20461;-94
2022/08/18 10:50:21;;;;;;;12.38;10.68;;;;;;;27.64;49.47;101220.75;5101386;28;20024;-91
2022/08/18 10:53:08;;;;;;;11.90;10.68;;;;;;;27.77;50.20;101223.78;5105422;28;20106;-89
2022/08/18 10:55:52;;;;;;;11.70;10.50;;;;;;;28.10;49.89;101222.69;5101546;28;20089;-90
2022/08/18 10:58:36;;;;;;;12.35;10.88;;;;;;;28.36;46.42;101231.38;5100345;28;20027;-90
2022/08/18 11:01:02;;;;;;;11.02;9.52;;;;;;;28.92;47.26;101223.59;5106777;28;20073;-89
2022/08/18 11:03:44;;;;;;;11.55;9.95;;;;;;;29.63;46.49;101231.31;5103362;28;20031;-91
2022/08/18 11:06:18;;;;;;;10.10;8.93;;;;;;;30.14;44.37;101225.69;5097273;28;20417;-90
2022/08/18 11:08:47;;;;;;;10.15;9.10;;;;;;;30.20;43.32;101209.34;5109774;28;20024;-90
2022/08/18 11:11:13;;;;;;;9.43;8.63;;;;;;;31.83;40.75;101207.91;5098948;28;20078;-88
2022/08/18 11:14:10;;;;;;;10.00;9.02;;;;;;;32.80;38.81;101205.59;5094311;28;20024;-88
2022/08/18 11:17:01;;;;;;;9.85;8.95;;;;;;;33.82;38.13;101203.91;5102345;28;20177;-88
2022/08/18 11:19:27;;;;;;;12.43;9.60;;;;;;;33.56;34.96;101194.72;5103729;28;20055;-88
2022/08/18 11:21:52;;;;;;;10.25;9.25;;;;;;;32.46;36.77;101177.25;5094023;28;20477;-88
2022/08/18 11:24:24;;;;;;;10.70;9.70;;;;;;;31.36;40.57;101187.69;5096675;28;20141;-88
2022/08/18 11:26:53;;;;;;;9.88;8.60;;;;;;;30.95;39.95;101176.69;5095649;28;20457;-88
2022/08/18 11:29:22;;;;;;;8.57;7.78;;;;;;;32.81;38.11;101180.56;5107996;28;20020;-88
2022/08/18 11:31:52;;;;;;;10.32;7.90;;;;;;;35.00;34.01;101173.53;5107871;28;20028;-89
2022/08/18 11:34:34;;;;;;;9.13;8.35;;;;;;;36.79;30.60;101178.22;5105358;28;20028;-89
2022/08/18 11:37:03;;;;;;;8.48;7.65;;;;;;;36.04;30.92;101177.00;5102151;28;20124;-95
2022/08/18 11:39:29;;;;;;;9.27;7.95;;;;;;;36.90;30.13;101169.00;5103424;28;20031;-90
2022/08/18 11:41:56;;;;;;;12.70;8.18;;;;;;;36.03;31.64;101175.28;5109534;28;20039;-89
2022/08/18 11:44:30;;;;;;;9.43;8.55;;;;;;;36.11;31.63;101165.78;5099185;28;20020;-90
2022/08/18 11:47:08;;;;;;;9.32;8.43;;;;;;;37.11;31.31;101168.38;5101235;28;20057;-89
2022/08/18 11:49:35;;;;;;;9.68;8.77;;;;;;;37.45;29.55;101170.44;5108591;28;20035;-88